Hovedside
METAR-TAF:

METAR-TAF

Lufthavner :

Sørkjosen, Norge

Sørkjosen lufthavn

breddegrad: 69-47N, lengdegrad: 020-58E, høyde over havet: 0 m

Gjeldene værobservasjon

Denne rapporten ble laget for 5 timer og 56 minutter siden, klokken 14:50 UTC
Vind 49 kt fra Vest-nordvest med vindkast opp mot 62 kt
Temperatur 1°C
Luftfuktighet 86%
Trykk 992 hPa
Sikt: 2000 m
snøbyger, regn

METAR: ENSR 261450Z 30026G43KT 2000 SHSNRA VV004 01/M01 Q0992 WIND 1119FT 30049G62KT

Tid: 22:46 (20:46 UTC)


TAF: fraværende

Værobservasjoner og værvarsel for over 4000 flyplasser (METAR- og TAF-rapporter).

Tilgjengelige stasjoner er representert av de røde og gule prikkene på kartet.

Hold musepekeren over prikken for å se navnet på stasjonen.

Klikk så for å se værobservasjoner og -varsler.

For å forandre kartet kan du klikke på den grønne knappen med svart kryss for å zoome inn, på den grønne knappen med strek for å zoome ut, eller på de grønne pilene for å se tilstøtende kart.


METAR-TAF: